Tuesday, February 20, 2018, 4:18 AM EST
Back to Local

KHIE, Mt Washington Regional Airport

Location: Jefferson, NH, United States Lat: 44.367
Local Time: 4:18 AM EST ( 9:18 GMT) Lon: -71.55
Time Zone: US/Eastern Elev: 1072 ft

Show me the last for .
Show Decoded

2018-02-20 04:07 METAR KHIE 200907Z AUTO 00000KT 2SM -RA BR BKN005 OVC013 02/02 A3017 RMK AO2
                 P0001 T00170017 =
2018-02-20 03:52 METAR KHIE 200852Z AUTO 00000KT 2 1/2SM -RA BR FEW007 OVC012 02/02 A3017 RMK AO2
                 RAE19B24UPB25E32 SLP226 P0001 60001 T00170017 55004 =
2018-02-20 03:33 METAR KHIE 200833Z AUTO 00000KT 2 1/2SM -RA BR FEW006 BKN010 OVC020 02/02 A3017
                 RMK AO2 RAE19B24UPB25E32 P0001 T00170017 =
2018-02-20 03:21 METAR KHIE 200821Z AUTO 00000KT 3SM BR BKN012 OVC020 02/02 A3016 RMK AO2 RAE19
                 P0001 T00170017 =
2018-02-20 03:07 METAR KHIE 200807Z AUTO 00000KT 1 3/4SM -RA BR BKN011 OVC021 02/01 A3015 RMK AO2
                 P0001 T00170011 =
2018-02-20 02:52 METAR KHIE 200752Z AUTO 00000KT 2SM -RA BR BKN011 OVC017 02/01 A3015 RMK AO2
                 UPE00RAB00E01B30 SLP221 P0000 T00170011 =
2018-02-20 02:43 METAR KHIE 200743Z AUTO 00000KT 2 1/2SM -RA BR OVC015 02/01 A3015 RMK AO2
                 UPE00RAB00E01B30 P0000 T00170011 =
2018-02-20 02:26 METAR KHIE 200726Z AUTO 00000KT 1 3/4SM BR OVC015 02/01 A3015 RMK AO2
                 UPE00RAB00E01 P0000 T00170011 =
2018-02-20 02:15 METAR KHIE 200715Z AUTO 00000KT 4SM BR FEW007 OVC016 02/01 A3016 RMK AO2
                 UPE00RAB00E01 P0000 T00170011 =
2018-02-20 02:04 METAR KHIE 200704Z AUTO 00000KT 2SM BR FEW007 OVC016 01/01 A3016 RMK AO2
                 UPE00RAB00E01 P0000 T00110011 =
2018-02-20 01:52 METAR KHIE 200652Z AUTO 00000KT 4SM UP BR FEW007 OVC016 02/01 A3016 RMK AO2
                 RAE00UPB51 SLP225 P0000 T00170011 =
2018-02-20 01:44 METAR KHIE 200644Z AUTO 00000KT 4SM BR SCT007 OVC017 02/02 A3016 RMK AO2 RAE00
                 P0000 T00170017 =
2018-02-20 01:16 METAR KHIE 200616Z AUTO 00000KT 3SM BR BKN009 OVC019 02/01 A3017 RMK AO2 RAE00
                 CIG 007V013 P0000 T00170011 =
2018-02-20 00:52 METAR KHIE 200552Z AUTO 00000KT 4SM -RA BR BKN012 OVC021 02/01 A3018 RMK AO2
                 RAB32 SLP231 P0001 60001 T00170011 10022 20011 50000 =
2018-02-20 00:31 METAR KHIE 200531Z AUTO 00000KT 3SM BR BKN012 OVC021 02/01 A3018 RMK AO2
                 T00170011 =
2018-02-19 23:52 METAR KHIE 200452Z AUTO 32003KT 10SM FEW014 BKN020 OVC045 02/01 A3018 RMK AO2
                 RAE47 SLP231 P0000 T00170011 400781183 =
2018-02-19 22:52 METAR KHIE 200352Z AUTO 18003KT 10SM -RA OVC021 02/01 A3019 RMK AO2 RAB51 SLP235
                 P0000 T00170006 =
2018-02-19 21:52 METAR KHIE 200252Z AUTO 00000KT 10SM OVC023 02/01 A3018 RMK AO2 SLP235 T00170006
                 58003 =
2018-02-19 20:52 METAR KHIE 200152Z AUTO 00000KT 10SM OVC026 02/01 A3019 RMK AO2 SLP240 T00170006
                 =
2018-02-19 19:52 METAR KHIE 200052Z AUTO 00000KT 10SM OVC029 02/01 A3019 RMK AO2 SLP243 T00170011
                 =
2018-02-19 19:27 METAR KHIE 200027Z AUTO 00000KT 10SM OVC029 02/01 A3020 RMK AO2 T00220011 =
2018-02-19 18:52 METAR KHIE 192352Z AUTO 00000KT 10SM OVC031 02/01 A3019 RMK AO2 RAE13 SLP245
                 P0000 60000 T00220011 10078 20022 56012 =
2018-02-19 17:52 METAR KHIE 192252Z AUTO 11004KT 10SM -RA OVC034 03/00 A3020 RMK AO2 RAE01B32
                 SLP246 P0000 T00280000 =
2018-02-19 16:52 METAR KHIE 192152Z AUTO 18003KT 10SM -RA BKN040 OVC050 06/M02 A3021 RMK AO2
                 RAB49 SLP250 P0000 T00611017 =
2018-02-19 15:52 METAR KHIE 192052Z AUTO 00000KT 10SM BKN043 07/M02 A3023 RMK AO2 SLP254
                 T00721022 58014 =
2018-02-19 14:52 METAR KHIE 191952Z AUTO VRB05KT 10SM BKN090 07/M03 A3024 RMK AO2 SLP260
                 T00671028 =
2018-02-19 13:52 METAR KHIE 191852Z AUTO 24008KT 10SM FEW045 OVC100 07/M03 A3026 RMK AO2 SLP264
                 T00671033 =
2018-02-19 12:52 METAR KHIE 191752Z AUTO 22009G16KT 150V250 10SM FEW120 07/M03 A3027 RMK AO2
                 SLP268 T00671028 10072 21183 56036 =
2018-02-19 11:52 METAR KHIE 191652Z AUTO 22007KT 180V260 10SM CLR 06/M03 A3031 RMK AO2 SLP280
                 T00611033 =
2018-02-19 10:52 METAR KHIE 191552Z AUTO 00000KT 10SM CLR 03/M05 A3034 RMK AO2 SLP292 T00331050 =
2018-02-19 09:52 METAR KHIE 191452Z AUTO 00000KT 9SM CLR M03/M06 A3038 RMK AO2 SLP308 T10331061
                 58010 =
2018-02-19 08:52 METAR KHIE 191352Z AUTO 00000KT 10SM CLR M10/M11 A3040 RMK AO2 SLP318 T11001111
                 =
2018-02-19 07:52 METAR KHIE 191252Z AUTO 00000KT 10SM CLR M16/M16 A3039 RMK AO2 SLP317 T11561161
                 =
2018-02-19 06:52 METAR KHIE 191152Z AUTO 00000KT 9SM CLR M18/M19 A3041 RMK AO2 SLP324 T11781194
                 11144 21178 51005 =
2018-02-19 05:52 METAR KHIE 191052Z AUTO 00000KT 9SM CLR M17/M19 A3041 RMK AO2 SLP322 T11721194 =
2018-02-19 04:52 METAR KHIE 190952Z AUTO 00000KT 10SM CLR M17/M18 A3040 RMK AO2 SLP319 T11671178
                 =

Support USWX by starting your Amazon purchase here.